createdAt,value
2023-05-21T00:00:41.518Z,5.18
2023-05-21T00:03:16.296Z,5.70
2023-05-21T00:05:47.122Z,5.65
2023-05-21T00:08:16.779Z,4.75
2023-05-21T00:10:44.794Z,5.22
2023-05-21T00:13:12.805Z,6.10
2023-05-21T00:15:41.111Z,5.97
2023-05-21T00:18:09.180Z,5.20
2023-05-21T00:20:37.354Z,5.15
2023-05-21T00:23:05.403Z,5.68
2023-05-21T00:25:34.972Z,5.32
2023-05-21T00:28:03.037Z,5.45
2023-05-21T00:30:31.006Z,5.07
2023-05-21T00:33:02.681Z,5.53
2023-05-21T00:35:31.071Z,6.32
2023-05-21T00:37:59.924Z,5.65
2023-05-21T00:40:27.816Z,5.45
2023-05-21T00:42:57.362Z,5.85
2023-05-21T00:45:25.641Z,6.47
2023-05-21T00:47:55.712Z,5.72
2023-05-21T00:50:24.312Z,6.25
2023-05-21T00:52:52.296Z,5.47
2023-05-21T00:55:21.843Z,5.82
2023-05-21T00:57:50.086Z,5.82
2023-05-21T01:00:20.143Z,5.65
2023-05-21T01:02:49.941Z,5.47
2023-05-21T01:05:18.243Z,5.60
2023-05-21T01:07:46.738Z,5.70
2023-05-21T01:10:14.992Z,5.40
2023-05-21T01:12:46.800Z,5.72
2023-05-21T01:15:15.277Z,5.45
2023-05-21T01:17:45.998Z,5.65
2023-05-21T01:20:14.647Z,5.35
2023-05-21T01:22:44.864Z,5.70
2023-05-21T01:25:15.107Z,5.40
2023-05-21T01:27:43.130Z,5.55
2023-05-21T01:30:12.242Z,5.22
2023-05-21T01:32:46.764Z,5.53
2023-05-21T01:35:19.412Z,5.22
2023-05-21T01:37:52.724Z,5.47
2023-05-21T01:40:32.319Z,5.47
2023-05-21T01:43:01.042Z,5.97
2023-05-21T01:45:32.482Z,5.70
2023-05-21T01:48:01.155Z,6.28
2023-05-21T01:50:31.980Z,5.45
2023-05-21T01:53:01.149Z,5.38
2023-05-21T01:55:31.428Z,5.25
2023-05-21T01:58:02.468Z,5.60
2023-05-21T02:00:32.608Z,5.28
2023-05-21T02:03:00.773Z,5.45
2023-05-21T02:05:28.862Z,5.40
2023-05-21T02:07:57.179Z,5.63
2023-05-21T02:10:25.121Z,5.93
2023-05-21T02:12:54.459Z,4.90
2023-05-21T02:15:22.550Z,5.25
2023-05-21T02:17:51.428Z,5.78
2023-05-21T02:20:19.701Z,5.47
2023-05-21T02:22:49.594Z,4.82
2023-05-21T02:25:24.178Z,5.03
2023-05-21T02:27:53.707Z,4.80
2023-05-21T02:30:23.150Z,5.07
2023-05-21T02:32:51.207Z,5.20
2023-05-21T02:35:19.266Z,5.60
2023-05-21T02:37:47.199Z,5.60
2023-05-21T02:40:15.316Z,5.60
2023-05-21T02:42:43.322Z,5.53
2023-05-21T02:45:12.546Z,5.60
2023-05-21T02:47:42.006Z,5.55
2023-05-21T02:50:10.826Z,5.53
2023-05-21T02:52:38.771Z,5.30
2023-05-21T02:55:07.703Z,5.30
2023-05-21T02:57:35.626Z,5.18
2023-05-21T03:00:05.171Z,4.90
2023-05-21T03:02:33.384Z,5.30
2023-05-21T03:05:02.960Z,5.55
2023-05-21T03:07:30.970Z,5.70
2023-05-21T03:09:59.342Z,5.47
2023-05-21T03:12:27.266Z,5.18
2023-05-21T03:14:56.507Z,5.47
2023-05-21T03:17:24.550Z,5.22
2023-05-21T03:19:52.505Z,5.78
2023-05-21T03:22:21.853Z,5.50
2023-05-21T03:24:49.921Z,4.80
2023-05-21T03:27:17.897Z,5.18
2023-05-21T03:29:46.058Z,5.10
2023-05-21T03:32:14.880Z,5.45
2023-05-21T03:34:42.910Z,4.85
2023-05-21T03:37:11.140Z,5.43
2023-05-21T03:39:40.557Z,4.95
2023-05-21T03:42:08.502Z,4.75
2023-05-21T03:44:36.521Z,5.32
2023-05-21T03:47:04.573Z,5.03
2023-05-21T03:49:32.483Z,6.93
2023-05-21T03:52:00.429Z,5.60
2023-05-21T03:54:28.356Z,5.65
2023-05-21T03:56:57.661Z,4.68
2023-05-21T03:59:26.392Z,5.10
2023-05-21T04:01:54.298Z,4.65
2023-05-21T04:04:22.312Z,4.35
2023-05-21T04:06:51.720Z,4.60
2023-05-21T04:09:19.712Z,5.15
2023-05-21T04:11:48.010Z,4.45
2023-05-21T04:14:17.391Z,4.50
2023-05-21T04:16:49.230Z,5.25
2023-05-21T04:19:17.307Z,4.82
2023-05-21T04:21:45.990Z,5.03
2023-05-21T04:24:13.922Z,5.28
2023-05-21T04:26:42.550Z,4.88
2023-05-21T04:29:11.582Z,4.85
2023-05-21T04:31:40.967Z,5.03
2023-05-21T04:34:08.985Z,4.97
2023-05-21T04:36:36.955Z,4.85
2023-05-21T04:39:06.358Z,4.90
2023-05-21T04:41:34.327Z,4.63
2023-05-21T04:44:02.296Z,4.35
2023-05-21T04:46:31.053Z,4.30
2023-05-21T04:49:03.040Z,4.72
2023-05-21T04:51:31.307Z,4.57
2023-05-21T04:53:59.746Z,4.75
2023-05-21T04:56:27.718Z,5.00
2023-05-21T04:58:55.988Z,4.55
2023-05-21T05:01:24.149Z,4.65
2023-05-21T05:03:52.332Z,4.55
2023-05-21T05:06:22.364Z,4.38
2023-05-21T05:08:50.604Z,4.70
2023-05-21T05:11:18.540Z,4.40
2023-05-21T05:13:46.549Z,4.55
2023-05-21T05:16:14.571Z,4.30
2023-05-21T05:18:42.604Z,4.75
2023-05-21T05:21:10.963Z,4.90
2023-05-21T05:23:40.218Z,4.35
2023-05-21T05:26:08.196Z,3.83
2023-05-21T05:28:36.371Z,4.10
2023-05-21T05:31:04.400Z,4.15
2023-05-21T05:33:33.725Z,4.22
2023-05-21T05:36:01.790Z,4.05
2023-05-21T05:38:29.701Z,4.47
2023-05-21T05:41:04.990Z,4.20
2023-05-21T05:43:33.187Z,4.85
2023-05-21T05:46:01.365Z,4.25
2023-05-21T05:48:29.349Z,4.50
2023-05-21T05:50:57.314Z,3.85
2023-05-21T05:53:29.596Z,4.35
2023-05-21T05:55:59.833Z,4.53
2023-05-21T05:58:27.820Z,4.38
2023-05-21T06:00:59.136Z,4.43
2023-05-21T06:03:28.355Z,5.57
2023-05-21T06:05:56.591Z,4.05
2023-05-21T06:08:24.773Z,4.18
2023-05-21T06:10:52.762Z,4.70
2023-05-21T06:13:22.060Z,4.30
2023-05-21T06:15:50.187Z,3.95
2023-05-21T06:18:18.128Z,4.07
2023-05-21T06:20:46.187Z,3.88
2023-05-21T06:23:14.209Z,3.53
2023-05-21T06:25:42.267Z,12.90
2023-05-21T06:28:10.221Z,4.22
2023-05-21T06:30:39.700Z,4.82
2023-05-21T06:33:08.063Z,3.35
2023-05-21T06:35:37.488Z,4.57
2023-05-21T06:38:05.729Z,3.90
2023-05-21T06:40:33.656Z,3.55
2023-05-21T06:43:01.602Z,4.03
2023-05-21T06:45:29.681Z,3.42
2023-05-21T06:47:59.003Z,3.47
2023-05-21T06:50:27.097Z,4.20
2023-05-21T06:52:55.111Z,3.55
2023-05-21T06:55:23.379Z,5.30
2023-05-21T06:57:51.302Z,3.25
2023-05-21T07:00:19.710Z,3.63
2023-05-21T07:02:48.810Z,3.53
2023-05-21T07:05:18.246Z,3.10
2023-05-21T07:07:46.366Z,3.13
2023-05-21T07:10:14.364Z,3.45
2023-05-21T07:12:42.594Z,3.97
2023-05-21T07:15:11.202Z,4.72
2023-05-21T07:17:39.293Z,3.28
2023-05-21T07:20:09.910Z,4.03
2023-05-21T07:22:40.092Z,4.07
2023-05-21T07:25:09.010Z,3.22
2023-05-21T07:27:36.996Z,2.90
2023-05-21T07:30:05.882Z,3.20
2023-05-21T07:32:34.125Z,2.72
2023-05-21T07:35:03.075Z,2.95
2023-05-21T07:37:31.149Z,2.78
2023-05-21T07:40:00.649Z,2.85
2023-05-21T07:42:28.658Z,2.75
2023-05-21T07:44:56.618Z,2.75
2023-05-21T07:47:24.640Z,2.83
2023-05-21T07:49:52.636Z,2.30
2023-05-21T07:52:20.588Z,2.30
2023-05-21T07:54:48.494Z,2.22
2023-05-21T07:57:17.968Z,2.47
2023-05-21T07:59:46.071Z,2.58
2023-05-21T08:02:14.062Z,2.28
2023-05-21T08:04:42.530Z,2.35
2023-05-21T08:07:10.826Z,2.10
2023-05-21T08:09:42.079Z,3.80
2023-05-21T08:12:10.168Z,4.35
2023-05-21T08:14:39.637Z,4.55
2023-05-21T08:17:07.575Z,4.00
2023-05-21T08:19:35.565Z,2.65
2023-05-21T08:22:03.672Z,2.45
2023-05-21T08:24:31.618Z,2.15
2023-05-21T08:26:59.722Z,1.85
2023-05-21T08:29:27.661Z,2.25
2023-05-21T08:31:57.387Z,2.10
2023-05-21T08:34:25.609Z,1.75
2023-05-21T08:36:53.924Z,2.10
2023-05-21T08:39:22.034Z,2.05
2023-05-21T08:41:56.432Z,1.67
2023-05-21T08:44:26.937Z,1.90
2023-05-21T08:46:58.881Z,2.00
2023-05-21T08:49:31.872Z,2.40
2023-05-21T08:52:00.979Z,2.10
2023-05-21T08:54:29.131Z,1.90
2023-05-21T08:56:59.434Z,2.00
2023-05-21T08:59:28.422Z,1.90
2023-05-21T09:02:00.002Z,1.70
2023-05-21T09:04:28.796Z,1.98
2023-05-21T09:06:59.364Z,2.00
2023-05-21T09:09:33.909Z,2.00
2023-05-21T09:12:02.070Z,2.08
2023-05-21T09:14:30.845Z,2.03
2023-05-21T09:17:00.325Z,2.10
2023-05-21T09:19:29.352Z,2.30
2023-05-21T09:22:03.171Z,2.00
2023-05-21T09:24:35.719Z,2.10
2023-05-21T09:27:08.030Z,1.88
2023-05-21T09:29:36.011Z,1.90
2023-05-21T09:32:12.311Z,2.10
2023-05-21T09:34:40.609Z,1.90
2023-05-21T09:37:19.950Z,2.88
2023-05-21T09:39:54.882Z,1.77
2023-05-21T09:42:23.404Z,1.98
2023-05-21T09:44:51.537Z,2.10
2023-05-21T09:47:23.959Z,1.63
2023-05-21T09:49:52.025Z,1.60
2023-05-21T09:52:26.498Z,1.90
2023-05-21T09:54:55.476Z,1.73
2023-05-21T09:57:27.486Z,1.83
2023-05-21T09:59:56.006Z,1.95
2023-05-21T10:02:27.743Z,1.73
2023-05-21T10:04:58.006Z,1.75
2023-05-21T10:07:28.117Z,2.03
2023-05-21T10:09:58.230Z,1.70
2023-05-21T10:12:26.486Z,2.83
2023-05-21T10:15:02.250Z,2.05
2023-05-21T10:17:32.200Z,2.10
2023-05-21T10:20:01.450Z,1.90
2023-05-21T10:22:29.751Z,1.98
2023-05-21T10:24:58.883Z,1.60
2023-05-21T10:27:31.317Z,1.92
2023-05-21T10:30:04.037Z,1.88
2023-05-21T10:32:34.077Z,2.35
2023-05-21T10:35:03.150Z,2.50
2023-05-21T10:37:31.042Z,2.80
2023-05-21T10:39:59.053Z,3.75
2023-05-21T10:43:01.034Z,2.38
2023-05-21T10:45:39.076Z,2.22
2023-05-21T10:48:23.547Z,2.10
2023-05-21T10:51:08.318Z,2.10
2023-05-21T10:53:49.284Z,1.92
2023-05-21T10:56:24.824Z,2.28
2023-05-21T10:59:04.323Z,1.70
2023-05-21T11:01:36.021Z,2.00
2023-05-21T11:04:06.256Z,1.90
2023-05-21T11:06:34.812Z,1.90
2023-05-21T11:09:03.937Z,2.17
2023-05-21T11:11:43.743Z,1.73
2023-05-21T11:14:28.576Z,2.10
2023-05-21T11:16:57.064Z,2.08
2023-05-21T11:19:35.944Z,2.10
2023-05-21T11:22:07.505Z,1.98
2023-05-21T11:24:39.261Z,2.20
2023-05-21T11:27:08.656Z,2.33
2023-05-21T11:29:47.265Z,2.13
2023-05-21T11:32:20.658Z,2.20
2023-05-21T11:34:49.975Z,2.28
2023-05-21T11:37:34.666Z,2.13
2023-05-21T11:40:20.428Z,2.38
2023-05-21T11:42:53.051Z,1.98
2023-05-21T11:45:23.201Z,2.72
2023-05-21T11:47:53.565Z,2.35
2023-05-21T11:50:23.105Z,2.72
2023-05-21T11:52:52.082Z,2.30
2023-05-21T11:55:23.800Z,2.63
2023-05-21T11:57:55.418Z,2.63
2023-05-21T12:00:23.702Z,2.35
2023-05-21T12:02:53.983Z,2.03
2023-05-21T12:05:24.226Z,2.20
2023-05-21T12:07:52.306Z,2.40
2023-05-21T12:10:22.860Z,2.17
2023-05-21T12:12:56.338Z,2.20
2023-05-21T12:15:27.609Z,2.10
2023-05-21T12:17:56.375Z,2.70
2023-05-21T12:20:28.198Z,2.42
2023-05-21T12:22:57.831Z,2.38
2023-05-21T12:25:25.979Z,2.30
2023-05-21T12:27:58.075Z,2.60
2023-05-21T12:30:26.722Z,2.40
2023-05-21T12:32:54.703Z,2.50
2023-05-21T12:35:24.490Z,2.10
2023-05-21T12:37:54.491Z,2.10
2023-05-21T12:40:22.747Z,3.42
2023-05-21T12:42:51.889Z,6.80
2023-05-21T12:45:22.769Z,2.55
2023-05-21T12:47:56.191Z,2.38
2023-05-21T12:50:24.947Z,2.15
2023-05-21T12:52:57.284Z,2.20
2023-05-21T12:55:26.698Z,2.30
2023-05-21T12:58:03.873Z,2.70
2023-05-21T13:00:33.464Z,2.22
2023-05-21T13:03:02.291Z,2.20
2023-05-21T13:05:30.391Z,1.98
2023-05-21T13:07:59.828Z,2.20
2023-05-21T13:10:27.751Z,2.42
2023-05-21T13:12:55.848Z,2.10
2023-05-21T13:15:23.834Z,1.90
2023-05-21T13:17:54.349Z,2.50
2023-05-21T13:20:26.569Z,2.42
2023-05-21T13:22:55.056Z,2.35
2023-05-21T13:25:28.824Z,2.05
2023-05-21T13:27:58.360Z,2.47
2023-05-21T13:30:26.573Z,2.75
2023-05-21T13:32:55.038Z,2.33
2023-05-21T13:35:23.342Z,2.10
2023-05-21T13:37:51.511Z,2.35
2023-05-21T13:40:19.836Z,3.00
2023-05-21T13:42:50.558Z,5.45
2023-05-21T13:45:25.500Z,3.67
2023-05-21T13:47:53.784Z,3.03
2023-05-21T13:50:22.040Z,2.92
2023-05-21T13:52:50.031Z,2.92
2023-05-21T13:55:18.975Z,2.30
2023-05-21T13:57:48.316Z,2.50
2023-05-21T14:00:16.650Z,2.33
2023-05-21T14:02:45.477Z,2.20
2023-05-21T14:05:14.024Z,2.10
2023-05-21T14:07:42.803Z,2.00
2023-05-21T14:10:12.837Z,2.17
2023-05-21T14:12:41.197Z,2.25
2023-05-21T14:15:12.077Z,2.22
2023-05-21T14:17:42.611Z,2.15
2023-05-21T14:20:14.062Z,2.38
2023-05-21T14:22:42.342Z,2.30
2023-05-21T14:25:11.238Z,2.05
2023-05-21T14:27:39.350Z,2.25
2023-05-21T14:30:08.596Z,2.50
2023-05-21T14:32:38.067Z,2.60
2023-05-21T14:35:06.787Z,2.40
2023-05-21T14:37:34.943Z,2.53
2023-05-21T14:40:03.046Z,2.55
2023-05-21T14:42:32.084Z,2.40
2023-05-21T14:45:07.445Z,2.45
2023-05-21T14:47:48.871Z,2.03
2023-05-21T14:50:18.601Z,2.60
2023-05-21T14:52:47.051Z,2.42
2023-05-21T14:55:16.965Z,3.10
2023-05-21T14:57:45.189Z,2.25
2023-05-21T15:00:14.021Z,2.35
2023-05-21T15:02:42.048Z,2.47
2023-05-21T15:05:11.400Z,2.88
2023-05-21T15:07:39.297Z,2.75
2023-05-21T15:10:09.552Z,2.65
2023-05-21T15:12:37.948Z,2.47
2023-05-21T15:15:07.086Z,2.50
2023-05-21T15:17:36.051Z,2.47
2023-05-21T15:20:04.782Z,2.83
2023-05-21T15:22:34.372Z,5.07
2023-05-21T15:25:03.578Z,2.50
2023-05-21T15:27:31.742Z,2.60
2023-05-21T15:30:00.357Z,1.90
2023-05-21T15:32:28.783Z,2.40
2023-05-21T15:34:57.101Z,2.90
2023-05-21T15:37:25.320Z,2.65
2023-05-21T15:39:54.903Z,2.55
2023-05-21T15:42:23.170Z,2.42
2023-05-21T15:44:51.358Z,2.65
2023-05-21T15:47:22.992Z,2.33
2023-05-21T15:49:51.725Z,2.20
2023-05-21T15:52:20.210Z,2.15
2023-05-21T15:54:48.145Z,2.08
2023-05-21T15:57:17.511Z,2.13
2023-05-21T15:59:45.630Z,2.10
2023-05-21T16:02:13.913Z,2.20
2023-05-21T16:04:42.068Z,2.85
2023-05-21T16:07:10.018Z,2.30
2023-05-21T16:09:38.597Z,2.00
2023-05-21T16:12:07.296Z,2.35
2023-05-21T16:14:36.636Z,1.80
2023-05-21T16:17:04.843Z,2.10
2023-05-21T16:19:32.976Z,2.22
2023-05-21T16:22:01.959Z,2.28
2023-05-21T16:24:29.955Z,3.60
2023-05-21T16:26:58.426Z,2.00
2023-05-21T16:29:26.456Z,2.30
2023-05-21T16:31:55.794Z,1.90
2023-05-21T16:34:23.815Z,2.17
2023-05-21T16:36:52.249Z,2.30
2023-05-21T16:39:20.307Z,2.17
2023-05-21T16:41:48.254Z,1.95
2023-05-21T16:44:16.252Z,2.10
2023-05-21T16:46:44.388Z,2.15
2023-05-21T16:49:13.737Z,2.50
2023-05-21T16:51:41.826Z,2.15
2023-05-21T16:54:09.950Z,1.83
2023-05-21T16:56:37.954Z,2.00
2023-05-21T16:59:06.082Z,2.22
2023-05-21T17:01:34.089Z,2.20
2023-05-21T17:04:02.164Z,2.22
2023-05-21T17:06:31.784Z,2.33
2023-05-21T17:09:03.735Z,2.40
2023-05-21T17:11:32.285Z,2.10
2023-05-21T17:14:00.894Z,2.22
2023-05-21T17:16:28.851Z,2.00
2023-05-21T17:18:56.949Z,2.20
2023-05-21T17:21:26.466Z,2.55
2023-05-21T17:23:55.820Z,2.35
2023-05-21T17:26:23.899Z,2.13
2023-05-21T17:28:51.854Z,2.42
2023-05-21T17:31:20.087Z,2.22
2023-05-21T17:33:47.996Z,2.22
2023-05-21T17:36:16.310Z,2.38
2023-05-21T17:38:44.878Z,2.03
2023-05-21T17:41:16.387Z,2.28
2023-05-21T17:43:44.333Z,2.28
2023-05-21T17:46:16.732Z,3.85
2023-05-21T17:48:45.044Z,2.70
2023-05-21T17:51:13.458Z,2.45
2023-05-21T17:53:41.983Z,2.63
2023-05-21T17:56:11.554Z,2.00
2023-05-21T17:58:40.893Z,3.65
2023-05-21T18:01:09.083Z,1.90
2023-05-21T18:03:37.211Z,2.30
2023-05-21T18:06:08.128Z,4.13
2023-05-21T18:08:37.559Z,2.35
2023-05-21T18:11:05.823Z,2.40
2023-05-21T18:13:33.948Z,3.30
2023-05-21T18:16:03.410Z,2.45
2023-05-21T18:18:31.431Z,2.47
2023-05-21T18:20:59.464Z,2.35
2023-05-21T18:23:28.737Z,2.78
2023-05-21T18:25:56.889Z,2.67
2023-05-21T18:28:24.992Z,5.75
2023-05-21T18:30:52.879Z,5.18
2023-05-21T18:33:22.518Z,2.80
2023-05-21T18:35:50.650Z,2.67
2023-05-21T18:38:18.625Z,2.50
2023-05-21T18:40:46.747Z,2.35
2023-05-21T18:43:15.159Z,2.55
2023-05-21T18:45:43.182Z,2.45
2023-05-21T18:48:11.847Z,2.33
2023-05-21T18:50:41.391Z,2.53
2023-05-21T18:53:09.449Z,2.30
2023-05-21T18:55:37.679Z,2.60
2023-05-21T18:58:08.349Z,2.40
2023-05-21T19:00:38.475Z,2.40
2023-05-21T19:03:06.962Z,2.70
2023-05-21T19:05:35.454Z,2.50
2023-05-21T19:08:04.944Z,2.60
2023-05-21T19:10:33.019Z,3.00
2023-05-21T19:13:01.253Z,3.20
2023-05-21T19:15:31.025Z,2.83
2023-05-21T19:18:00.736Z,2.67
2023-05-21T19:20:30.316Z,2.78
2023-05-21T19:22:58.301Z,3.22
2023-05-21T19:25:27.692Z,2.65
2023-05-21T19:27:58.906Z,3.30
2023-05-21T19:30:26.872Z,3.05
2023-05-21T19:32:55.193Z,3.22
2023-05-21T19:35:23.489Z,2.97
2023-05-21T19:37:51.554Z,2.63
2023-05-21T19:40:22.613Z,2.80
2023-05-21T19:42:52.179Z,2.72
2023-05-21T19:45:21.469Z,2.90
2023-05-21T19:47:49.634Z,2.80
2023-05-21T19:50:21.163Z,2.80
2023-05-21T19:52:52.464Z,2.78
2023-05-21T19:55:21.212Z,3.33
2023-05-21T19:57:52.074Z,2.65
2023-05-21T20:00:28.580Z,2.50
2023-05-21T20:02:57.864Z,2.63
2023-05-21T20:05:25.897Z,2.60
2023-05-21T20:07:54.651Z,3.03
2023-05-21T20:10:22.646Z,2.50
2023-05-21T20:12:50.668Z,2.65
2023-05-21T20:15:18.829Z,2.60
2023-05-21T20:17:50.520Z,2.40
2023-05-21T20:20:18.957Z,2.53
2023-05-21T20:22:47.057Z,2.47
2023-05-21T20:25:15.260Z,2.80
2023-05-21T20:27:43.193Z,2.63
2023-05-21T20:30:11.446Z,3.03
2023-05-21T20:32:39.501Z,2.80
2023-05-21T20:35:10.141Z,2.78
2023-05-21T20:37:38.144Z,3.10
2023-05-21T20:40:07.798Z,3.00
2023-05-21T20:42:36.609Z,3.20
2023-05-21T20:45:05.067Z,2.83
2023-05-21T20:47:33.916Z,2.90
2023-05-21T20:50:03.869Z,2.60
2023-05-21T20:52:33.232Z,2.78
2023-05-21T20:55:04.667Z,2.55
2023-05-21T20:57:32.653Z,3.05
2023-05-21T21:00:00.890Z,7.20
2023-05-21T21:02:28.914Z,5.13
2023-05-21T21:04:57.982Z,3.67
2023-05-21T21:07:25.915Z,2.78
2023-05-21T21:09:58.149Z,2.83
2023-05-21T21:12:27.051Z,2.80
2023-05-21T21:14:55.056Z,2.65
2023-05-21T21:17:23.318Z,2.80
2023-05-21T21:19:51.269Z,2.90
2023-05-21T21:22:19.332Z,2.80
2023-05-21T21:24:47.336Z,2.72
2023-05-21T21:27:16.695Z,2.60
2023-05-21T21:29:44.732Z,2.65
2023-05-21T21:32:13.010Z,4.20
2023-05-21T21:34:41.004Z,2.72
2023-05-21T21:37:09.128Z,2.42
2023-05-21T21:39:37.102Z,2.33
2023-05-21T21:42:05.485Z,2.65
2023-05-21T21:44:34.910Z,2.47
2023-05-21T21:47:02.884Z,2.28
2023-05-21T21:49:30.950Z,2.47
2023-05-21T21:51:58.955Z,2.35
2023-05-21T21:54:27.811Z,2.33
2023-05-21T21:56:56.047Z,2.60
2023-05-21T21:59:24.949Z,2.58
2023-05-21T22:01:54.289Z,2.38
2023-05-21T22:04:22.308Z,2.75
2023-05-21T22:06:50.608Z,2.33
2023-05-21T22:09:18.655Z,2.60
2023-05-21T22:11:46.759Z,2.50
2023-05-21T22:14:14.617Z,2.75
2023-05-21T22:16:43.312Z,2.65
2023-05-21T22:19:15.661Z,2.50
2023-05-21T22:21:43.675Z,2.92
2023-05-21T22:24:24.214Z,2.75
2023-05-21T22:26:58.587Z,2.88
2023-05-21T22:29:27.802Z,2.95
2023-05-21T22:31:55.858Z,2.58
2023-05-21T22:34:25.715Z,3.00
2023-05-21T22:36:53.980Z,2.97
2023-05-21T22:39:21.986Z,2.97
2023-05-21T22:41:50.145Z,2.70
2023-05-21T22:44:18.132Z,2.78
2023-05-21T22:46:47.779Z,2.75
2023-05-21T22:49:16.492Z,2.78
2023-05-21T22:51:46.391Z,2.83
2023-05-21T22:54:14.321Z,2.97
2023-05-21T22:56:42.308Z,2.80
2023-05-21T22:59:26.244Z,2.55
2023-05-21T23:01:54.494Z,3.08
2023-05-21T23:04:39.706Z,2.83
2023-05-21T23:07:12.742Z,2.67
2023-05-21T23:09:41.090Z,2.67
2023-05-21T23:12:10.974Z,3.10
2023-05-21T23:14:38.951Z,2.88
2023-05-21T23:17:07.502Z,2.65
2023-05-21T23:19:35.685Z,3.38
2023-05-21T23:22:03.863Z,3.00
2023-05-21T23:24:35.103Z,3.00
2023-05-21T23:27:03.705Z,4.57
2023-05-21T23:29:32.089Z,2.70
2023-05-21T23:32:01.210Z,2.80
2023-05-21T23:34:29.263Z,2.97
2023-05-21T23:36:59.445Z,2.75
2023-05-21T23:39:28.636Z,2.92
2023-05-21T23:41:58.166Z,3.45
2023-05-21T23:44:26.339Z,3.28
2023-05-21T23:46:54.263Z,3.00
2023-05-21T23:49:22.209Z,2.97
2023-05-21T23:51:51.024Z,2.78
2023-05-21T23:54:19.197Z,2.92
2023-05-21T23:56:47.668Z,2.80
2023-05-21T23:59:18.443Z,3.28
